sensor_id;sensor_type;location;lat;lon;timestamp;temperature;humidity
59075;DHT22;44860;53.020;6.738;2022-11-14T00:01:57;7.10;99.90
59075;DHT22;44860;53.020;6.738;2022-11-14T00:04:22;7.10;99.90
59075;DHT22;44860;53.020;6.738;2022-11-14T00:06:48;7.10;99.90
59075;DHT22;44860;53.020;6.738;2022-11-14T00:09:14;7.10;99.90
59075;DHT22;44860;53.020;6.738;2022-11-14T00:11:39;7.10;99.90
59075;DHT22;44860;53.020;6.738;2022-11-14T00:14:05;7.10;99.90
59075;DHT22;44860;53.020;6.738;2022-11-14T00:16:31;7.10;99.90
59075;DHT22;44860;53.020;6.738;2022-11-14T00:18:56;7.10;99.90
59075;DHT22;44860;53.020;6.738;2022-11-14T00:21:22;7.20;99.90
59075;DHT22;44860;53.020;6.738;2022-11-14T00:23:48;7.20;99.90
59075;DHT22;44860;53.020;6.738;2022-11-14T00:26:13;7.20;99.90
59075;DHT22;44860;53.020;6.738;2022-11-14T00:28:39;7.20;99.90
59075;DHT22;44860;53.020;6.738;2022-11-14T00:31:04;7.20;99.90
59075;DHT22;44860;53.020;6.738;2022-11-14T00:33:30;7.20;99.90
59075;DHT22;44860;53.020;6.738;2022-11-14T00:35:56;7.20;99.90
59075;DHT22;44860;53.020;6.738;2022-11-14T00:38:22;7.20;99.90
59075;DHT22;44860;53.020;6.738;2022-11-14T00:40:48;7.20;99.90
59075;DHT22;44860;53.020;6.738;2022-11-14T00:43:13;7.20;99.90
59075;DHT22;44860;53.020;6.738;2022-11-14T00:45:42;7.20;99.90
59075;DHT22;44860;53.020;6.738;2022-11-14T00:48:08;7.20;99.90
59075;DHT22;44860;53.020;6.738;2022-11-14T00:50:33;7.20;99.90
59075;DHT22;44860;53.020;6.738;2022-11-14T00:52:59;7.20;99.90
59075;DHT22;44860;53.020;6.738;2022-11-14T00:55:25;7.30;99.90
59075;DHT22;44860;53.020;6.738;2022-11-14T00:57:50;7.30;99.90
59075;DHT22;44860;53.020;6.738;2022-11-14T01:00:16;7.30;99.90
59075;DHT22;44860;53.020;6.738;2022-11-14T01:02:42;7.30;99.90
59075;DHT22;44860;53.020;6.738;2022-11-14T01:05:07;7.30;99.90
59075;DHT22;44860;53.020;6.738;2022-11-14T01:07:33;7.30;99.90
59075;DHT22;44860;53.020;6.738;2022-11-14T01:09:59;7.30;99.90
59075;DHT22;44860;53.020;6.738;2022-11-14T01:12:24;7.30;99.90
59075;DHT22;44860;53.020;6.738;2022-11-14T01:14:50;7.30;99.90
59075;DHT22;44860;53.020;6.738;2022-11-14T01:17:15;7.30;99.90
59075;DHT22;44860;53.020;6.738;2022-11-14T01:19:41;7.30;99.90
59075;DHT22;44860;53.020;6.738;2022-11-14T01:22:07;7.30;99.90
59075;DHT22;44860;53.020;6.738;2022-11-14T01:24:33;7.30;99.90
59075;DHT22;44860;53.020;6.738;2022-11-14T01:26:59;7.20;99.90
59075;DHT22;44860;53.020;6.738;2022-11-14T01:29:25;7.20;99.90
59075;DHT22;44860;53.020;6.738;2022-11-14T01:31:51;7.20;99.90
59075;DHT22;44860;53.020;6.738;2022-11-14T01:34:16;7.20;99.90
59075;DHT22;44860;53.020;6.738;2022-11-14T01:36:42;7.20;99.90
59075;DHT22;44860;53.020;6.738;2022-11-14T01:39:08;7.10;99.90
59075;DHT22;44860;53.020;6.738;2022-11-14T01:41:33;7.10;99.90
59075;DHT22;44860;53.020;6.738;2022-11-14T01:43:59;7.10;99.90
59075;DHT22;44860;53.020;6.738;2022-11-14T01:46:33;7.10;99.90
59075;DHT22;44860;53.020;6.738;2022-11-14T01:49:23;7.10;99.90
59075;DHT22;44860;53.020;6.738;2022-11-14T01:52:06;7.10;99.90
59075;DHT22;44860;53.020;6.738;2022-11-14T01:54:36;7.10;99.90
59075;DHT22;44860;53.020;6.738;2022-11-14T01:57:04;7.20;99.90
59075;DHT22;44860;53.020;6.738;2022-11-14T01:59:37;7.10;99.90
59075;DHT22;44860;53.020;6.738;2022-11-14T02:02:09;7.10;99.90
59075;DHT22;44860;53.020;6.738;2022-11-14T02:04:40;7.10;99.90
59075;DHT22;44860;53.020;6.738;2022-11-14T02:07:07;7.10;99.90
59075;DHT22;44860;53.020;6.738;2022-11-14T02:09:36;7.10;99.90
59075;DHT22;44860;53.020;6.738;2022-11-14T02:12:05;7.10;99.90
59075;DHT22;44860;53.020;6.738;2022-11-14T02:14:32;7.10;99.90
59075;DHT22;44860;53.020;6.738;2022-11-14T02:16:58;7.10;99.90
59075;DHT22;44860;53.020;6.738;2022-11-14T02:19:24;7.10;99.90
59075;DHT22;44860;53.020;6.738;2022-11-14T02:21:49;7.10;99.90
59075;DHT22;44860;53.020;6.738;2022-11-14T02:24:15;7.10;99.90
59075;DHT22;44860;53.020;6.738;2022-11-14T02:26:41;7.10;99.90
59075;DHT22;44860;53.020;6.738;2022-11-14T02:29:09;7.10;99.90
59075;DHT22;44860;53.020;6.738;2022-11-14T02:31:35;7.00;99.90
59075;DHT22;44860;53.020;6.738;2022-11-14T02:34:01;7.10;99.90
59075;DHT22;44860;53.020;6.738;2022-11-14T02:36:27;7.10;99.90
59075;DHT22;44860;53.020;6.738;2022-11-14T02:38:52;7.10;99.90
59075;DHT22;44860;53.020;6.738;2022-11-14T02:41:18;7.00;99.90
59075;DHT22;44860;53.020;6.738;2022-11-14T02:43:43;7.10;99.90
59075;DHT22;44860;53.020;6.738;2022-11-14T02:46:09;7.10;99.90
59075;DHT22;44860;53.020;6.738;2022-11-14T02:48:35;7.10;99.90
59075;DHT22;44860;53.020;6.738;2022-11-14T02:51:01;7.10;99.90
59075;DHT22;44860;53.020;6.738;2022-11-14T02:53:26;7.10;99.90
59075;DHT22;44860;53.020;6.738;2022-11-14T02:55:52;7.10;99.90
59075;DHT22;44860;53.020;6.738;2022-11-14T02:58:18;7.10;99.90
59075;DHT22;44860;53.020;6.738;2022-11-14T03:00:44;7.00;99.90
59075;DHT22;44860;53.020;6.738;2022-11-14T03:03:09;7.00;99.90
59075;DHT22;44860;53.020;6.738;2022-11-14T03:05:35;7.00;99.90
59075;DHT22;44860;53.020;6.738;2022-11-14T03:08:01;7.00;99.90
59075;DHT22;44860;53.020;6.738;2022-11-14T03:10:27;7.10;99.90
59075;DHT22;44860;53.020;6.738;2022-11-14T03:12:56;7.00;99.90
59075;DHT22;44860;53.020;6.738;2022-11-14T03:15:22;7.00;99.90
59075;DHT22;44860;53.020;6.738;2022-11-14T03:17:49;7.00;99.90
59075;DHT22;44860;53.020;6.738;2022-11-14T03:20:15;7.10;99.90
59075;DHT22;44860;53.020;6.738;2022-11-14T03:22:41;7.10;99.90
59075;DHT22;44860;53.020;6.738;2022-11-14T03:25:07;7.10;99.90
59075;DHT22;44860;53.020;6.738;2022-11-14T03:27:33;7.10;99.90
59075;DHT22;44860;53.020;6.738;2022-11-14T03:29:58;7.10;99.90
59075;DHT22;44860;53.020;6.738;2022-11-14T03:32:24;7.10;99.90
59075;DHT22;44860;53.020;6.738;2022-11-14T03:34:50;7.10;99.90
59075;DHT22;44860;53.020;6.738;2022-11-14T03:37:15;7.10;99.90
59075;DHT22;44860;53.020;6.738;2022-11-14T03:39:41;7.10;99.90
59075;DHT22;44860;53.020;6.738;2022-11-14T03:42:06;7.10;99.90
59075;DHT22;44860;53.020;6.738;2022-11-14T03:44:32;7.10;99.90
59075;DHT22;44860;53.020;6.738;2022-11-14T03:46:58;7.10;99.90
59075;DHT22;44860;53.020;6.738;2022-11-14T03:49:23;7.10;99.90
59075;DHT22;44860;53.020;6.738;2022-11-14T03:51:49;7.10;99.90
59075;DHT22;44860;53.020;6.738;2022-11-14T03:54:15;7.10;99.90
59075;DHT22;44860;53.020;6.738;2022-11-14T03:56:40;7.10;99.90
59075;DHT22;44860;53.020;6.738;2022-11-14T03:59:06;7.10;99.90
59075;DHT22;44860;53.020;6.738;2022-11-14T04:01:32;7.10;99.90
59075;DHT22;44860;53.020;6.738;2022-11-14T04:03:57;7.10;99.90
59075;DHT22;44860;53.020;6.738;2022-11-14T04:06:23;7.10;99.90
59075;DHT22;44860;53.020;6.738;2022-11-14T04:08:48;7.10;99.90
59075;DHT22;44860;53.020;6.738;2022-11-14T04:11:16;7.10;99.90
59075;DHT22;44860;53.020;6.738;2022-11-14T04:13:42;7.10;99.90
59075;DHT22;44860;53.020;6.738;2022-11-14T04:16:07;7.10;99.90
59075;DHT22;44860;53.020;6.738;2022-11-14T04:18:33;7.10;99.90
59075;DHT22;44860;53.020;6.738;2022-11-14T04:20:59;7.10;99.90
59075;DHT22;44860;53.020;6.738;2022-11-14T04:23:24;7.10;99.90
59075;DHT22;44860;53.020;6.738;2022-11-14T04:25:50;7.10;99.90
59075;DHT22;44860;53.020;6.738;2022-11-14T04:28:15;7.10;99.90
59075;DHT22;44860;53.020;6.738;2022-11-14T04:30:41;7.10;99.90
59075;DHT22;44860;53.020;6.738;2022-11-14T04:33:07;7.10;99.90
59075;DHT22;44860;53.020;6.738;2022-11-14T04:35:33;7.10;99.90
59075;DHT22;44860;53.020;6.738;2022-11-14T04:37:58;7.10;99.90
59075;DHT22;44860;53.020;6.738;2022-11-14T04:40:24;7.10;99.90
59075;DHT22;44860;53.020;6.738;2022-11-14T04:42:50;7.10;99.90
59075;DHT22;44860;53.020;6.738;2022-11-14T04:45:15;7.10;99.90
59075;DHT22;44860;53.020;6.738;2022-11-14T04:47:41;7.10;99.90
59075;DHT22;44860;53.020;6.738;2022-11-14T04:50:08;7.10;99.90
59075;DHT22;44860;53.020;6.738;2022-11-14T04:52:33;7.00;99.90
59075;DHT22;44860;53.020;6.738;2022-11-14T04:54:59;7.00;99.90
59075;DHT22;44860;53.020;6.738;2022-11-14T04:57:25;7.00;99.90
59075;DHT22;44860;53.020;6.738;2022-11-14T04:59:51;7.00;99.90
59075;DHT22;44860;53.020;6.738;2022-11-14T05:02:16;7.00;99.90
59075;DHT22;44860;53.020;6.738;2022-11-14T05:04:42;7.00;99.90
59075;DHT22;44860;53.020;6.738;2022-11-14T05:07:10;7.00;99.90
59075;DHT22;44860;53.020;6.738;2022-11-14T05:09:36;7.00;99.90
59075;DHT22;44860;53.020;6.738;2022-11-14T05:12:02;7.00;99.90
59075;DHT22;44860;53.020;6.738;2022-11-14T05:14:28;7.00;99.90
59075;DHT22;44860;53.020;6.738;2022-11-14T05:16:56;7.00;99.90
59075;DHT22;44860;53.020;6.738;2022-11-14T05:19:21;7.00;99.90
59075;DHT22;44860;53.020;6.738;2022-11-14T05:21:47;7.00;99.90
59075;DHT22;44860;53.020;6.738;2022-11-14T05:24:13;7.00;99.90
59075;DHT22;44860;53.020;6.738;2022-11-14T05:26:38;7.00;99.90
59075;DHT22;44860;53.020;6.738;2022-11-14T05:29:04;7.00;99.90
59075;DHT22;44860;53.020;6.738;2022-11-14T05:31:29;7.00;99.90
59075;DHT22;44860;53.020;6.738;2022-11-14T05:33:55;7.00;99.90
59075;DHT22;44860;53.020;6.738;2022-11-14T05:36:21;7.00;99.90
59075;DHT22;44860;53.020;6.738;2022-11-14T05:38:46;7.00;99.90
59075;DHT22;44860;53.020;6.738;2022-11-14T05:41:14;7.00;99.90
59075;DHT22;44860;53.020;6.738;2022-11-14T05:43:40;7.00;99.90
59075;DHT22;44860;53.020;6.738;2022-11-14T05:46:08;6.90;99.90
59075;DHT22;44860;53.020;6.738;2022-11-14T05:48:34;7.00;99.90
59075;DHT22;44860;53.020;6.738;2022-11-14T05:51:02;6.90;99.90
59075;DHT22;44860;53.020;6.738;2022-11-14T05:53:29;7.00;99.90
59075;DHT22;44860;53.020;6.738;2022-11-14T05:56:02;6.90;99.90
59075;DHT22;44860;53.020;6.738;2022-11-14T05:58:33;6.90;99.90
59075;DHT22;44860;53.020;6.738;2022-11-14T06:01:14;6.90;99.90
59075;DHT22;44860;53.020;6.738;2022-11-14T06:03:41;6.90;99.90
59075;DHT22;44860;53.020;6.738;2022-11-14T06:06:09;6.90;99.90
59075;DHT22;44860;53.020;6.738;2022-11-14T06:08:35;6.80;99.90
59075;DHT22;44860;53.020;6.738;2022-11-14T06:11:03;6.80;99.90
59075;DHT22;44860;53.020;6.738;2022-11-14T06:13:30;6.90;99.90
59075;DHT22;44860;53.020;6.738;2022-11-14T06:16:00;6.90;99.90
59075;DHT22;44860;53.020;6.738;2022-11-14T06:18:27;6.90;99.90
59075;DHT22;44860;53.020;6.738;2022-11-14T06:20:57;6.90;99.90
59075;DHT22;44860;53.020;6.738;2022-11-14T06:23:23;6.80;99.90
59075;DHT22;44860;53.020;6.738;2022-11-14T06:25:49;6.80;99.90
59075;DHT22;44860;53.020;6.738;2022-11-14T06:28:15;6.80;99.90
59075;DHT22;44860;53.020;6.738;2022-11-14T06:30:41;6.80;99.90
59075;DHT22;44860;53.020;6.738;2022-11-14T06:33:06;6.80;99.90
59075;DHT22;44860;53.020;6.738;2022-11-14T06:35:32;6.80;99.90
59075;DHT22;44860;53.020;6.738;2022-11-14T06:37:58;6.80;99.90
59075;DHT22;44860;53.020;6.738;2022-11-14T06:40:24;6.80;99.90
59075;DHT22;44860;53.020;6.738;2022-11-14T06:42:50;6.80;99.90
59075;DHT22;44860;53.020;6.738;2022-11-14T06:45:15;6.80;99.90
59075;DHT22;44860;53.020;6.738;2022-11-14T06:47:41;6.80;99.90
59075;DHT22;44860;53.020;6.738;2022-11-14T06:50:07;6.80;99.90
59075;DHT22;44860;53.020;6.738;2022-11-14T06:52:33;6.80;99.90
59075;DHT22;44860;53.020;6.738;2022-11-14T06:54:58;6.80;99.90
59075;DHT22;44860;53.020;6.738;2022-11-14T06:57:24;6.80;99.90
59075;DHT22;44860;53.020;6.738;2022-11-14T06:59:49;6.80;99.90
59075;DHT22;44860;53.020;6.738;2022-11-14T07:02:15;6.70;99.90
59075;DHT22;44860;53.020;6.738;2022-11-14T07:04:41;6.70;99.90
59075;DHT22;44860;53.020;6.738;2022-11-14T07:07:06;6.70;99.90
59075;DHT22;44860;53.020;6.738;2022-11-14T07:09:32;6.70;99.90
59075;DHT22;44860;53.020;6.738;2022-11-14T07:11:57;6.70;99.90
59075;DHT22;44860;53.020;6.738;2022-11-14T07:14:23;6.70;99.90
59075;DHT22;44860;53.020;6.738;2022-11-14T07:16:49;6.70;99.90
59075;DHT22;44860;53.020;6.738;2022-11-14T07:19:14;6.70;99.90
59075;DHT22;44860;53.020;6.738;2022-11-14T07:21:40;6.70;99.90
59075;DHT22;44860;53.020;6.738;2022-11-14T07:24:06;6.60;99.90
59075;DHT22;44860;53.020;6.738;2022-11-14T07:26:32;6.60;99.90
59075;DHT22;44860;53.020;6.738;2022-11-14T07:28:57;6.60;99.90
59075;DHT22;44860;53.020;6.738;2022-11-14T07:31:23;6.70;99.90
59075;DHT22;44860;53.020;6.738;2022-11-14T07:33:48;6.60;99.90
59075;DHT22;44860;53.020;6.738;2022-11-14T07:36:15;6.60;99.90
59075;DHT22;44860;53.020;6.738;2022-11-14T07:38:41;6.60;99.90
59075;DHT22;44860;53.020;6.738;2022-11-14T07:41:12;6.60;99.90
59075;DHT22;44860;53.020;6.738;2022-11-14T07:43:38;6.60;99.90
59075;DHT22;44860;53.020;6.738;2022-11-14T07:46:07;6.60;99.90
59075;DHT22;44860;53.020;6.738;2022-11-14T07:48:33;6.60;99.90
59075;DHT22;44860;53.020;6.738;2022-11-14T07:51:04;6.60;99.90
59075;DHT22;44860;53.020;6.738;2022-11-14T07:53:31;6.60;99.90
59075;DHT22;44860;53.020;6.738;2022-11-14T07:56:01;6.60;99.90
59075;DHT22;44860;53.020;6.738;2022-11-14T07:58:27;6.50;99.90
59075;DHT22;44860;53.020;6.738;2022-11-14T08:00:53;6.60;99.90
59075;DHT22;44860;53.020;6.738;2022-11-14T08:03:18;6.60;99.90
59075;DHT22;44860;53.020;6.738;2022-11-14T08:05:44;6.60;99.90
59075;DHT22;44860;53.020;6.738;2022-11-14T08:08:10;6.60;99.90
59075;DHT22;44860;53.020;6.738;2022-11-14T08:10:35;6.60;99.90
59075;DHT22;44860;53.020;6.738;2022-11-14T08:13:03;6.60;99.90
59075;DHT22;44860;53.020;6.738;2022-11-14T08:15:29;6.60;99.90
59075;DHT22;44860;53.020;6.738;2022-11-14T08:17:59;6.60;99.90
59075;DHT22;44860;53.020;6.738;2022-11-14T08:20:26;6.60;99.90
59075;DHT22;44860;53.020;6.738;2022-11-14T08:23:03;6.60;99.90
59075;DHT22;44860;53.020;6.738;2022-11-14T08:25:29;6.60;99.90
59075;DHT22;44860;53.020;6.738;2022-11-14T08:27:55;6.70;99.90
59075;DHT22;44860;53.020;6.738;2022-11-14T08:30:20;6.70;99.90
59075;DHT22;44860;53.020;6.738;2022-11-14T08:32:46;6.70;99.90
59075;DHT22;44860;53.020;6.738;2022-11-14T08:35:11;6.70;99.90
59075;DHT22;44860;53.020;6.738;2022-11-14T08:37:37;6.60;99.90
59075;DHT22;44860;53.020;6.738;2022-11-14T08:40:03;6.70;99.90
59075;DHT22;44860;53.020;6.738;2022-11-14T08:42:29;6.70;99.90
59075;DHT22;44860;53.020;6.738;2022-11-14T08:44:54;6.70;99.90
59075;DHT22;44860;53.020;6.738;2022-11-14T08:47:20;6.70;99.90
59075;DHT22;44860;53.020;6.738;2022-11-14T08:49:45;6.70;99.90
59075;DHT22;44860;53.020;6.738;2022-11-14T08:52:11;6.70;99.90
59075;DHT22;44860;53.020;6.738;2022-11-14T08:54:37;6.70;99.90
59075;DHT22;44860;53.020;6.738;2022-11-14T08:57:02;6.70;99.90
59075;DHT22;44860;53.020;6.738;2022-11-14T08:59:30;6.70;99.90
59075;DHT22;44860;53.020;6.738;2022-11-14T09:01:55;6.70;99.90
59075;DHT22;44860;53.020;6.738;2022-11-14T09:04:21;6.70;99.90
59075;DHT22;44860;53.020;6.738;2022-11-14T09:06:47;6.70;99.90
59075;DHT22;44860;53.020;6.738;2022-11-14T09:09:12;6.70;99.90
59075;DHT22;44860;53.020;6.738;2022-11-14T09:11:38;6.70;99.90
59075;DHT22;44860;53.020;6.738;2022-11-14T09:14:04;6.70;99.90
59075;DHT22;44860;53.020;6.738;2022-11-14T09:16:29;6.70;99.90
59075;DHT22;44860;53.020;6.738;2022-11-14T09:18:55;6.80;99.90
59075;DHT22;44860;53.020;6.738;2022-11-14T09:21:21;6.80;99.90
59075;DHT22;44860;53.020;6.738;2022-11-14T09:23:47;6.80;99.90
59075;DHT22;44860;53.020;6.738;2022-11-14T09:26:12;6.80;99.90
59075;DHT22;44860;53.020;6.738;2022-11-14T09:28:39;6.90;99.90
59075;DHT22;44860;53.020;6.738;2022-11-14T09:31:07;6.90;99.90
59075;DHT22;44860;53.020;6.738;2022-11-14T09:33:34;6.90;99.90
59075;DHT22;44860;53.020;6.738;2022-11-14T09:36:02;6.90;99.90
59075;DHT22;44860;53.020;6.738;2022-11-14T09:38:28;6.90;99.90
59075;DHT22;44860;53.020;6.738;2022-11-14T09:44:03;7.00;99.90
59075;DHT22;44860;53.020;6.738;2022-11-14T09:46:42;7.00;99.90
59075;DHT22;44860;53.020;6.738;2022-11-14T09:49:26;7.00;99.90
59075;DHT22;44860;53.020;6.738;2022-11-14T09:52:18;7.00;99.90
59075;DHT22;44860;53.020;6.738;2022-11-14T09:54:56;7.10;99.90
59075;DHT22;44860;53.020;6.738;2022-11-14T09:57:22;7.10;99.90
59075;DHT22;44860;53.020;6.738;2022-11-14T09:59:49;7.10;99.90
59075;DHT22;44860;53.020;6.738;2022-11-14T10:21:29;7.20;99.90
59075;DHT22;44860;53.020;6.738;2022-11-14T10:27:09;7.20;99.90
59075;DHT22;44860;53.020;6.738;2022-11-14T10:32:32;7.30;99.90
59075;DHT22;44860;53.020;6.738;2022-11-14T10:35:07;7.30;99.90
59075;DHT22;44860;53.020;6.738;2022-11-14T10:37:39;7.30;99.90
59075;DHT22;44860;53.020;6.738;2022-11-14T10:40:13;7.40;99.90
59075;DHT22;44860;53.020;6.738;2022-11-14T10:42:42;7.40;99.90
59075;DHT22;44860;53.020;6.738;2022-11-14T10:45:15;7.40;99.90
59075;DHT22;44860;53.020;6.738;2022-11-14T10:47:47;7.40;99.90
59075;DHT22;44860;53.020;6.738;2022-11-14T10:50:36;7.40;99.90
59075;DHT22;44860;53.020;6.738;2022-11-14T10:53:17;7.50;99.90
59075;DHT22;44860;53.020;6.738;2022-11-14T10:55:49;7.50;99.90
59075;DHT22;44860;53.020;6.738;2022-11-14T10:58:16;7.50;99.90
59075;DHT22;44860;53.020;6.738;2022-11-14T11:00:41;7.50;99.90
59075;DHT22;44860;53.020;6.738;2022-11-14T11:03:07;7.60;99.90
59075;DHT22;44860;53.020;6.738;2022-11-14T11:05:44;7.70;99.90
59075;DHT22;44860;53.020;6.738;2022-11-14T11:08:10;7.70;99.90
59075;DHT22;44860;53.020;6.738;2022-11-14T11:10:57;7.70;99.90
59075;DHT22;44860;53.020;6.738;2022-11-14T11:14:14;7.80;99.90
59075;DHT22;44860;53.020;6.738;2022-11-14T11:16:40;7.90;99.90
59075;DHT22;44860;53.020;6.738;2022-11-14T11:19:17;7.90;99.90
59075;DHT22;44860;53.020;6.738;2022-11-14T11:21:51;7.90;99.90
59075;DHT22;44860;53.020;6.738;2022-11-14T11:24:31;7.90;99.90
59075;DHT22;44860;53.020;6.738;2022-11-14T11:27:23;7.90;99.90
59075;DHT22;44860;53.020;6.738;2022-11-14T11:30:19;8.00;99.90
59075;DHT22;44860;53.020;6.738;2022-11-14T11:32:45;8.00;99.90
59075;DHT22;44860;53.020;6.738;2022-11-14T11:35:15;8.00;99.90
59075;DHT22;44860;53.020;6.738;2022-11-14T11:37:45;8.10;99.90
59075;DHT22;44860;53.020;6.738;2022-11-14T11:40:26;8.10;99.90
59075;DHT22;44860;53.020;6.738;2022-11-14T11:43:00;8.10;99.90
59075;DHT22;44860;53.020;6.738;2022-11-14T11:45:29;8.20;99.90
59075;DHT22;44860;53.020;6.738;2022-11-14T11:48:00;8.20;99.90
59075;DHT22;44860;53.020;6.738;2022-11-14T11:50:29;8.20;99.90
59075;DHT22;44860;53.020;6.738;2022-11-14T11:53:17;8.30;99.90
59075;DHT22;44860;53.020;6.738;2022-11-14T11:55:48;8.30;99.90
59075;DHT22;44860;53.020;6.738;2022-11-14T11:58:31;8.40;99.90
59075;DHT22;44860;53.020;6.738;2022-11-14T12:01:00;8.40;99.90
59075;DHT22;44860;53.020;6.738;2022-11-14T12:03:26;8.40;99.90
59075;DHT22;44860;53.020;6.738;2022-11-14T12:06:15;8.50;99.90
59075;DHT22;44860;53.020;6.738;2022-11-14T12:11:27;8.50;99.90
59075;DHT22;44860;53.020;6.738;2022-11-14T12:16:54;8.60;99.90
59075;DHT22;44860;53.020;6.738;2022-11-14T12:30:36;8.90;99.90
59075;DHT22;44860;53.020;6.738;2022-11-14T12:33:11;9.00;99.90
59075;DHT22;44860;53.020;6.738;2022-11-14T12:35:48;9.00;99.90
59075;DHT22;44860;53.020;6.738;2022-11-14T12:38:16;9.00;99.90
59075;DHT22;44860;53.020;6.738;2022-11-14T12:40:54;9.10;99.90
59075;DHT22;44860;53.020;6.738;2022-11-14T12:43:38;9.10;99.90
59075;DHT22;44860;53.020;6.738;2022-11-14T12:46:10;9.10;99.90
59075;DHT22;44860;53.020;6.738;2022-11-14T12:48:38;9.20;99.90
59075;DHT22;44860;53.020;6.738;2022-11-14T12:53:49;9.30;99.90
59075;DHT22;44860;53.020;6.738;2022-11-14T13:09:34;9.50;99.90
59075;DHT22;44860;53.020;6.738;2022-11-14T13:18:21;9.50;99.90
59075;DHT22;44860;53.020;6.738;2022-11-14T13:24:06;9.50;99.90
59075;DHT22;44860;53.020;6.738;2022-11-14T13:28:57;9.50;99.90
59075;DHT22;44860;53.020;6.738;2022-11-14T13:31:46;9.40;99.90
59075;DHT22;44860;53.020;6.738;2022-11-14T13:42:47;9.40;99.90
59075;DHT22;44860;53.020;6.738;2022-11-14T13:48:41;9.40;99.90
59075;DHT22;44860;53.020;6.738;2022-11-14T13:51:14;9.40;99.90
59075;DHT22;44860;53.020;6.738;2022-11-14T13:53:42;9.40;99.90
59075;DHT22;44860;53.020;6.738;2022-11-14T13:58:59;9.40;99.90
59075;DHT22;44860;53.020;6.738;2022-11-14T14:04:01;9.40;99.90
59075;DHT22;44860;53.020;6.738;2022-11-14T14:09:21;9.40;99.90
59075;DHT22;44860;53.020;6.738;2022-11-14T14:14:54;9.30;99.90
59075;DHT22;44860;53.020;6.738;2022-11-14T14:17:37;9.30;99.90
59075;DHT22;44860;53.020;6.738;2022-11-14T14:20:15;9.30;99.90
59075;DHT22;44860;53.020;6.738;2022-11-14T14:28:18;9.30;99.90
59075;DHT22;44860;53.020;6.738;2022-11-14T14:33:42;9.20;99.90
59075;DHT22;44860;53.020;6.738;2022-11-14T14:38:41;9.10;99.90
59075;DHT22;44860;53.020;6.738;2022-11-14T14:41:08;9.10;99.90
59075;DHT22;44860;53.020;6.738;2022-11-14T14:43:35;9.10;99.90
59075;DHT22;44860;53.020;6.738;2022-11-14T14:46:01;9.10;99.90
59075;DHT22;44860;53.020;6.738;2022-11-14T14:48:29;9.00;99.90
59075;DHT22;44860;53.020;6.738;2022-11-14T14:50:59;9.00;99.90
59075;DHT22;44860;53.020;6.738;2022-11-14T14:53:32;9.00;99.90
59075;DHT22;44860;53.020;6.738;2022-11-14T14:56:04;9.00;99.90
59075;DHT22;44860;53.020;6.738;2022-11-14T14:58:32;8.90;99.90
59075;DHT22;44860;53.020;6.738;2022-11-14T15:01:01;8.90;99.90
59075;DHT22;44860;53.020;6.738;2022-11-14T15:03:47;8.90;99.90
59075;DHT22;44860;53.020;6.738;2022-11-14T15:06:37;8.80;99.90
59075;DHT22;44860;53.020;6.738;2022-11-14T15:09:19;8.80;99.90
59075;DHT22;44860;53.020;6.738;2022-11-14T15:11:50;8.80;99.90
59075;DHT22;44860;53.020;6.738;2022-11-14T15:14:26;8.70;99.90
59075;DHT22;44860;53.020;6.738;2022-11-14T15:16:53;8.70;99.90
59075;DHT22;44860;53.020;6.738;2022-11-14T15:19:26;8.70;99.90
59075;DHT22;44860;53.020;6.738;2022-11-14T15:22:03;8.60;99.90
59075;DHT22;44860;53.020;6.738;2022-11-14T15:24:30;8.60;99.90
59075;DHT22;44860;53.020;6.738;2022-11-14T15:26:56;8.60;99.90
59075;DHT22;44860;53.020;6.738;2022-11-14T15:29:26;8.50;99.90
59075;DHT22;44860;53.020;6.738;2022-11-14T15:31:57;8.50;99.90
59075;DHT22;44860;53.020;6.738;2022-11-14T15:39:39;8.40;99.90
59075;DHT22;44860;53.020;6.738;2022-11-14T15:42:31;8.40;99.90
59075;DHT22;44860;53.020;6.738;2022-11-14T15:44:56;8.40;99.90
59075;DHT22;44860;53.020;6.738;2022-11-14T15:47:33;8.40;99.90
59075;DHT22;44860;53.020;6.738;2022-11-14T15:50:03;8.40;99.90
59075;DHT22;44860;53.020;6.738;2022-11-14T15:52:39;8.40;99.90
59075;DHT22;44860;53.020;6.738;2022-11-14T15:55:18;8.50;99.90
59075;DHT22;44860;53.020;6.738;2022-11-14T15:57:44;8.40;99.90
59075;DHT22;44860;53.020;6.738;2022-11-14T16:00:15;8.50;99.90
59075;DHT22;44860;53.020;6.738;2022-11-14T16:02:43;8.40;99.90
59075;DHT22;44860;53.020;6.738;2022-11-14T16:05:14;8.40;99.90
59075;DHT22;44860;53.020;6.738;2022-11-14T16:07:41;8.40;99.90
59075;DHT22;44860;53.020;6.738;2022-11-14T16:10:18;8.50;99.90
59075;DHT22;44860;53.020;6.738;2022-11-14T16:12:44;8.50;99.90
59075;DHT22;44860;53.020;6.738;2022-11-14T16:15:10;8.40;99.90
59075;DHT22;44860;53.020;6.738;2022-11-14T16:17:40;8.40;99.90
59075;DHT22;44860;53.020;6.738;2022-11-14T16:20:13;8.50;99.90
59075;DHT22;44860;53.020;6.738;2022-11-14T16:22:41;8.50;99.90
59075;DHT22;44860;53.020;6.738;2022-11-14T16:27:43;8.50;99.90
59075;DHT22;44860;53.020;6.738;2022-11-14T16:30:14;8.50;99.90
59075;DHT22;44860;53.020;6.738;2022-11-14T16:32:41;8.50;99.90
59075;DHT22;44860;53.020;6.738;2022-11-14T16:35:15;8.50;99.90
59075;DHT22;44860;53.020;6.738;2022-11-14T16:37:41;8.50;99.90
59075;DHT22;44860;53.020;6.738;2022-11-14T16:40:13;8.50;99.90
59075;DHT22;44860;53.020;6.738;2022-11-14T16:42:39;8.50;99.90
59075;DHT22;44860;53.020;6.738;2022-11-14T16:45:05;8.50;99.90
59075;DHT22;44860;53.020;6.738;2022-11-14T16:47:31;8.40;99.90
59075;DHT22;44860;53.020;6.738;2022-11-14T16:49:57;8.40;99.90
59075;DHT22;44860;53.020;6.738;2022-11-14T16:52:23;8.40;99.90
59075;DHT22;44860;53.020;6.738;2022-11-14T16:54:49;8.40;99.90
59075;DHT22;44860;53.020;6.738;2022-11-14T16:57:14;8.40;99.90
59075;DHT22;44860;53.020;6.738;2022-11-14T16:59:40;8.30;99.90
59075;DHT22;44860;53.020;6.738;2022-11-14T17:02:06;8.30;99.90
59075;DHT22;44860;53.020;6.738;2022-11-14T17:04:31;8.30;99.90
59075;DHT22;44860;53.020;6.738;2022-11-14T17:06:57;8.30;99.90
59075;DHT22;44860;53.020;6.738;2022-11-14T17:09:23;8.30;99.90
59075;DHT22;44860;53.020;6.738;2022-11-14T17:11:48;8.30;99.90
59075;DHT22;44860;53.020;6.738;2022-11-14T17:14:14;8.30;99.90
59075;DHT22;44860;53.020;6.738;2022-11-14T17:16:39;8.30;99.90
59075;DHT22;44860;53.020;6.738;2022-11-14T17:19:05;8.40;99.90
59075;DHT22;44860;53.020;6.738;2022-11-14T17:21:31;8.30;99.90
59075;DHT22;44860;53.020;6.738;2022-11-14T17:23:58;8.30;99.90
59075;DHT22;44860;53.020;6.738;2022-11-14T17:26:26;8.30;99.90
59075;DHT22;44860;53.020;6.738;2022-11-14T17:28:52;8.30;99.90
59075;DHT22;44860;53.020;6.738;2022-11-14T17:31:18;8.30;99.90
59075;DHT22;44860;53.020;6.738;2022-11-14T17:33:50;8.30;99.90
59075;DHT22;44860;53.020;6.738;2022-11-14T17:36:16;8.30;99.90
59075;DHT22;44860;53.020;6.738;2022-11-14T17:38:42;8.20;99.90
59075;DHT22;44860;53.020;6.738;2022-11-14T17:41:07;8.20;99.90
59075;DHT22;44860;53.020;6.738;2022-11-14T17:43:34;8.20;99.90
59075;DHT22;44860;53.020;6.738;2022-11-14T17:46:00;8.10;99.90
59075;DHT22;44860;53.020;6.738;2022-11-14T17:48:26;8.10;99.90